sensor_id;sensor_type;location;lat;lon;timestamp;P1;durP1;ratioP1;P2;durP2;ratioP2
21771;SDS011;11047;47.904;8.110;2022-09-17T00:00:27;1.10;;;1.00;;
21771;SDS011;11047;47.904;8.110;2022-09-17T00:02:56;3.50;;;0.90;;
21771;SDS011;11047;47.904;8.110;2022-09-17T00:05:23;1.35;;;1.00;;
21771;SDS011;11047;47.904;8.110;2022-09-17T00:07:50;1.30;;;1.13;;
21771;SDS011;11047;47.904;8.110;2022-09-17T00:10:18;1.92;;;1.20;;
21771;SDS011;11047;47.904;8.110;2022-09-17T00:12:47;1.75;;;1.20;;
21771;SDS011;11047;47.904;8.110;2022-09-17T00:15:16;1.88;;;1.05;;
21771;SDS011;11047;47.904;8.110;2022-09-17T00:17:43;2.65;;;1.13;;
21771;SDS011;11047;47.904;8.110;2022-09-17T00:20:10;1.10;;;1.10;;
21771;SDS011;11047;47.904;8.110;2022-09-17T00:22:37;4.28;;;1.30;;
21771;SDS011;11047;47.904;8.110;2022-09-17T00:25:05;3.50;;;1.20;;
21771;SDS011;11047;47.904;8.110;2022-09-17T00:27:33;1.40;;;1.00;;
21771;SDS011;11047;47.904;8.110;2022-09-17T00:30:00;1.30;;;1.17;;
21771;SDS011;11047;47.904;8.110;2022-09-17T00:32:28;1.27;;;1.15;;
21771;SDS011;11047;47.904;8.110;2022-09-17T00:34:55;3.20;;;1.40;;
21771;SDS011;11047;47.904;8.110;2022-09-17T00:37:22;2.88;;;1.30;;
21771;SDS011;11047;47.904;8.110;2022-09-17T00:39:49;1.48;;;1.20;;
21771;SDS011;11047;47.904;8.110;2022-09-17T00:42:16;1.63;;;1.20;;
21771;SDS011;11047;47.904;8.110;2022-09-17T00:44:48;3.05;;;1.27;;
21771;SDS011;11047;47.904;8.110;2022-09-17T00:47:19;1.10;;;1.00;;
21771;SDS011;11047;47.904;8.110;2022-09-17T00:49:50;1.67;;;0.90;;
21771;SDS011;11047;47.904;8.110;2022-09-17T00:52:21;1.35;;;1.10;;
21771;SDS011;11047;47.904;8.110;2022-09-17T00:54:53;2.42;;;1.23;;
21771;SDS011;11047;47.904;8.110;2022-09-17T00:57:25;3.03;;;1.00;;
21771;SDS011;11047;47.904;8.110;2022-09-17T00:59:53;1.17;;;1.08;;
21771;SDS011;11047;47.904;8.110;2022-09-17T01:02:20;2.85;;;1.48;;
21771;SDS011;11047;47.904;8.110;2022-09-17T01:04:47;3.92;;;1.10;;
21771;SDS011;11047;47.904;8.110;2022-09-17T01:07:18;2.42;;;1.15;;
21771;SDS011;11047;47.904;8.110;2022-09-17T01:09:58;6.13;;;1.30;;
21771;SDS011;11047;47.904;8.110;2022-09-17T01:12:42;3.03;;;1.10;;
21771;SDS011;11047;47.904;8.110;2022-09-17T01:15:21;2.50;;;1.08;;
21771;SDS011;11047;47.904;8.110;2022-09-17T01:17:57;1.00;;;1.00;;
21771;SDS011;11047;47.904;8.110;2022-09-17T01:23:52;2.25;;;1.27;;
21771;SDS011;11047;47.904;8.110;2022-09-17T01:26:51;1.65;;;1.05;;
21771;SDS011;11047;47.904;8.110;2022-09-17T01:29:47;1.17;;;0.80;;
21771;SDS011;11047;47.904;8.110;2022-09-17T01:32:30;3.13;;;1.02;;
21771;SDS011;11047;47.904;8.110;2022-09-17T01:35:02;1.58;;;1.02;;
21771;SDS011;11047;47.904;8.110;2022-09-17T01:37:38;2.88;;;1.10;;
21771;SDS011;11047;47.904;8.110;2022-09-17T01:40:13;2.75;;;1.00;;
21771;SDS011;11047;47.904;8.110;2022-09-17T01:42:50;4.45;;;1.27;;
21771;SDS011;11047;47.904;8.110;2022-09-17T01:45:24;2.03;;;1.00;;
21771;SDS011;11047;47.904;8.110;2022-09-17T01:47:57;5.50;;;1.17;;
21771;SDS011;11047;47.904;8.110;2022-09-17T01:50:30;2.97;;;1.08;;
21771;SDS011;11047;47.904;8.110;2022-09-17T01:53:02;1.77;;;1.02;;
21771;SDS011;11047;47.904;8.110;2022-09-17T01:55:34;3.58;;;1.30;;
21771;SDS011;11047;47.904;8.110;2022-09-17T01:58:04;3.67;;;1.30;;
21771;SDS011;11047;47.904;8.110;2022-09-17T02:00:35;2.15;;;1.33;;
21771;SDS011;11047;47.904;8.110;2022-09-17T02:03:08;1.95;;;1.00;;
21771;SDS011;11047;47.904;8.110;2022-09-17T02:05:41;1.85;;;1.50;;
21771;SDS011;11047;47.904;8.110;2022-09-17T02:08:14;2.45;;;1.70;;
21771;SDS011;11047;47.904;8.110;2022-09-17T02:10:44;4.07;;;1.80;;
21771;SDS011;11047;47.904;8.110;2022-09-17T02:13:13;4.00;;;1.63;;
21771;SDS011;11047;47.904;8.110;2022-09-17T02:15:46;2.38;;;1.30;;
21771;SDS011;11047;47.904;8.110;2022-09-17T02:18:18;1.70;;;1.60;;
21771;SDS011;11047;47.904;8.110;2022-09-17T02:20:51;3.20;;;1.52;;
21771;SDS011;11047;47.904;8.110;2022-09-17T02:25:56;5.57;;;2.47;;
21771;SDS011;11047;47.904;8.110;2022-09-17T02:28:26;4.55;;;1.80;;
21771;SDS011;11047;47.904;8.110;2022-09-17T02:30:58;2.17;;;1.50;;
21771;SDS011;11047;47.904;8.110;2022-09-17T02:33:27;1.45;;;1.35;;
21771;SDS011;11047;47.904;8.110;2022-09-17T02:35:57;1.83;;;1.40;;
21771;SDS011;11047;47.904;8.110;2022-09-17T02:38:24;1.95;;;1.35;;
21771;SDS011;11047;47.904;8.110;2022-09-17T02:40:53;3.38;;;1.60;;
21771;SDS011;11047;47.904;8.110;2022-09-17T02:43:30;3.97;;;1.50;;
21771;SDS011;11047;47.904;8.110;2022-09-17T02:46:06;3.90;;;1.20;;
21771;SDS011;11047;47.904;8.110;2022-09-17T02:49:02;3.08;;;1.20;;
21771;SDS011;11047;47.904;8.110;2022-09-17T02:51:43;1.73;;;0.90;;
21771;SDS011;11047;47.904;8.110;2022-09-17T02:54:20;1.48;;;0.90;;
21771;SDS011;11047;47.904;8.110;2022-09-17T02:56:55;1.17;;;1.08;;
21771;SDS011;11047;47.904;8.110;2022-09-17T02:59:30;1.92;;;1.20;;
21771;SDS011;11047;47.904;8.110;2022-09-17T03:02:07;1.60;;;1.10;;
21771;SDS011;11047;47.904;8.110;2022-09-17T03:04:42;1.63;;;0.90;;
21771;SDS011;11047;47.904;8.110;2022-09-17T03:07:11;3.40;;;1.02;;
21771;SDS011;11047;47.904;8.110;2022-09-17T03:09:39;1.10;;;1.10;;
21771;SDS011;11047;47.904;8.110;2022-09-17T03:12:07;3.00;;;1.20;;
21771;SDS011;11047;47.904;8.110;2022-09-17T03:14:34;2.97;;;1.25;;
21771;SDS011;11047;47.904;8.110;2022-09-17T03:17:01;3.05;;;1.10;;
21771;SDS011;11047;47.904;8.110;2022-09-17T03:19:28;2.45;;;0.93;;
21771;SDS011;11047;47.904;8.110;2022-09-17T03:21:57;3.20;;;1.30;;
21771;SDS011;11047;47.904;8.110;2022-09-17T03:24:23;1.77;;;0.93;;
21771;SDS011;11047;47.904;8.110;2022-09-17T03:26:51;3.88;;;0.80;;
21771;SDS011;11047;47.904;8.110;2022-09-17T03:29:18;3.78;;;0.93;;
21771;SDS011;11047;47.904;8.110;2022-09-17T03:31:44;2.42;;;0.90;;
21771;SDS011;11047;47.904;8.110;2022-09-17T03:34:11;3.65;;;1.10;;
21771;SDS011;11047;47.904;8.110;2022-09-17T03:36:38;2.75;;;0.70;;
21771;SDS011;11047;47.904;8.110;2022-09-17T03:39:07;1.98;;;1.10;;
21771;SDS011;11047;47.904;8.110;2022-09-17T03:41:33;0.80;;;0.80;;
21771;SDS011;11047;47.904;8.110;2022-09-17T03:44:00;3.90;;;1.13;;
21771;SDS011;11047;47.904;8.110;2022-09-17T03:46:28;3.88;;;1.17;;
21771;SDS011;11047;47.904;8.110;2022-09-17T03:48:55;1.98;;;1.20;;
21771;SDS011;11047;47.904;8.110;2022-09-17T03:51:22;1.00;;;1.00;;
21771;SDS011;11047;47.904;8.110;2022-09-17T03:53:49;2.78;;;1.10;;
21771;SDS011;11047;47.904;8.110;2022-09-17T03:56:17;2.38;;;1.20;;
21771;SDS011;11047;47.904;8.110;2022-09-17T03:58:44;1.48;;;1.05;;
21771;SDS011;11047;47.904;8.110;2022-09-17T04:01:11;1.40;;;1.23;;
21771;SDS011;11047;47.904;8.110;2022-09-17T04:03:37;1.25;;;1.10;;
21771;SDS011;11047;47.904;8.110;2022-09-17T04:06:05;1.00;;;0.85;;
21771;SDS011;11047;47.904;8.110;2022-09-17T04:08:32;1.55;;;1.45;;
21771;SDS011;11047;47.904;8.110;2022-09-17T04:11:00;3.35;;;1.10;;
21771;SDS011;11047;47.904;8.110;2022-09-17T04:13:28;2.08;;;1.00;;
21771;SDS011;11047;47.904;8.110;2022-09-17T04:15:55;1.90;;;1.38;;
21771;SDS011;11047;47.904;8.110;2022-09-17T04:18:22;1.70;;;1.35;;
21771;SDS011;11047;47.904;8.110;2022-09-17T04:20:49;1.70;;;1.60;;
21771;SDS011;11047;47.904;8.110;2022-09-17T04:23:16;3.63;;;2.20;;
21771;SDS011;11047;47.904;8.110;2022-09-17T04:25:43;3.78;;;1.95;;
21771;SDS011;11047;47.904;8.110;2022-09-17T04:28:10;5.38;;;2.72;;
21771;SDS011;11047;47.904;8.110;2022-09-17T04:30:38;3.58;;;2.08;;
21771;SDS011;11047;47.904;8.110;2022-09-17T04:33:07;3.20;;;1.58;;
21771;SDS011;11047;47.904;8.110;2022-09-17T04:35:33;1.60;;;1.40;;
21771;SDS011;11047;47.904;8.110;2022-09-17T04:38:00;2.63;;;1.58;;
21771;SDS011;11047;47.904;8.110;2022-09-17T04:40:28;2.78;;;1.80;;
21771;SDS011;11047;47.904;8.110;2022-09-17T04:42:55;1.75;;;1.65;;
21771;SDS011;11047;47.904;8.110;2022-09-17T04:45:27;2.47;;;1.30;;
21771;SDS011;11047;47.904;8.110;2022-09-17T04:47:56;3.50;;;1.80;;
21771;SDS011;11047;47.904;8.110;2022-09-17T04:50:23;5.57;;;1.88;;
21771;SDS011;11047;47.904;8.110;2022-09-17T04:52:49;2.88;;;1.67;;
21771;SDS011;11047;47.904;8.110;2022-09-17T04:55:16;1.92;;;1.33;;
21771;SDS011;11047;47.904;8.110;2022-09-17T04:57:46;2.10;;;1.35;;
21771;SDS011;11047;47.904;8.110;2022-09-17T05:00:15;1.50;;;1.35;;
21771;SDS011;11047;47.904;8.110;2022-09-17T05:02:43;2.13;;;1.52;;
21771;SDS011;11047;47.904;8.110;2022-09-17T05:05:13;4.65;;;2.63;;
21771;SDS011;11047;47.904;8.110;2022-09-17T05:07:41;4.28;;;3.05;;
21771;SDS011;11047;47.904;8.110;2022-09-17T05:10:08;2.60;;;2.40;;
21771;SDS011;11047;47.904;8.110;2022-09-17T05:12:36;5.18;;;2.80;;
21771;SDS011;11047;47.904;8.110;2022-09-17T05:15:04;3.42;;;2.72;;
21771;SDS011;11047;47.904;8.110;2022-09-17T05:17:31;3.90;;;2.75;;
21771;SDS011;11047;47.904;8.110;2022-09-17T05:19:58;3.45;;;2.97;;
21771;SDS011;11047;47.904;8.110;2022-09-17T05:22:27;4.85;;;2.55;;
21771;SDS011;11047;47.904;8.110;2022-09-17T05:24:54;5.30;;;3.10;;
21771;SDS011;11047;47.904;8.110;2022-09-17T05:27:21;2.53;;;2.38;;
21771;SDS011;11047;47.904;8.110;2022-09-17T05:29:48;3.58;;;2.80;;
21771;SDS011;11047;47.904;8.110;2022-09-17T05:32:15;3.33;;;2.60;;
21771;SDS011;11047;47.904;8.110;2022-09-17T05:34:41;4.38;;;2.60;;
21771;SDS011;11047;47.904;8.110;2022-09-17T05:37:08;7.53;;;3.05;;
21771;SDS011;11047;47.904;8.110;2022-09-17T05:39:37;5.00;;;3.17;;
21771;SDS011;11047;47.904;8.110;2022-09-17T05:42:04;8.35;;;3.15;;
21771;SDS011;11047;47.904;8.110;2022-09-17T05:44:31;4.57;;;2.88;;
21771;SDS011;11047;47.904;8.110;2022-09-17T05:46:58;4.28;;;2.72;;
21771;SDS011;11047;47.904;8.110;2022-09-17T05:49:25;4.95;;;2.42;;
21771;SDS011;11047;47.904;8.110;2022-09-17T05:51:52;2.80;;;2.35;;
21771;SDS011;11047;47.904;8.110;2022-09-17T05:54:19;3.47;;;3.15;;
21771;SDS011;11047;47.904;8.110;2022-09-17T05:56:47;2.47;;;2.28;;
21771;SDS011;11047;47.904;8.110;2022-09-17T05:59:18;2.20;;;1.73;;
21771;SDS011;11047;47.904;8.110;2022-09-17T06:01:45;2.17;;;1.60;;
21771;SDS011;11047;47.904;8.110;2022-09-17T06:04:12;2.30;;;1.30;;
21771;SDS011;11047;47.904;8.110;2022-09-17T06:06:39;1.80;;;1.05;;
21771;SDS011;11047;47.904;8.110;2022-09-17T06:09:06;1.60;;;1.15;;
21771;SDS011;11047;47.904;8.110;2022-09-17T06:11:34;2.38;;;1.38;;
21771;SDS011;11047;47.904;8.110;2022-09-17T06:17:26;4.10;;;2.20;;
21771;SDS011;11047;47.904;8.110;2022-09-17T06:19:52;2.38;;;2.17;;
21771;SDS011;11047;47.904;8.110;2022-09-17T06:22:19;3.83;;;2.55;;
21771;SDS011;11047;47.904;8.110;2022-09-17T06:24:47;4.47;;;2.60;;
21771;SDS011;11047;47.904;8.110;2022-09-17T06:27:14;4.20;;;2.45;;
21771;SDS011;11047;47.904;8.110;2022-09-17T06:29:41;4.13;;;2.60;;
21771;SDS011;11047;47.904;8.110;2022-09-17T06:32:07;4.57;;;2.30;;
21771;SDS011;11047;47.904;8.110;2022-09-17T06:34:38;3.97;;;2.58;;
21771;SDS011;11047;47.904;8.110;2022-09-17T06:37:05;2.15;;;1.92;;
21771;SDS011;11047;47.904;8.110;2022-09-17T06:39:32;3.28;;;1.60;;
21771;SDS011;11047;47.904;8.110;2022-09-17T06:41:59;4.68;;;1.50;;
21771;SDS011;11047;47.904;8.110;2022-09-17T06:44:26;2.85;;;1.70;;
21771;SDS011;11047;47.904;8.110;2022-09-17T06:46:52;3.50;;;1.10;;
21771;SDS011;11047;47.904;8.110;2022-09-17T06:49:19;1.33;;;1.20;;
21771;SDS011;11047;47.904;8.110;2022-09-17T06:51:48;2.47;;;1.13;;
21771;SDS011;11047;47.904;8.110;2022-09-17T06:54:14;1.38;;;1.27;;
21771;SDS011;11047;47.904;8.110;2022-09-17T06:56:41;2.15;;;1.35;;
21771;SDS011;11047;47.904;8.110;2022-09-17T06:59:10;1.55;;;1.33;;
21771;SDS011;11047;47.904;8.110;2022-09-17T07:01:37;2.33;;;1.75;;
21771;SDS011;11047;47.904;8.110;2022-09-17T07:04:04;4.07;;;3.10;;
21771;SDS011;11047;47.904;8.110;2022-09-17T07:06:31;3.97;;;2.10;;
21771;SDS011;11047;47.904;8.110;2022-09-17T07:08:59;2.67;;;2.45;;
21771;SDS011;11047;47.904;8.110;2022-09-17T07:11:28;3.13;;;2.70;;
21771;SDS011;11047;47.904;8.110;2022-09-17T07:13:55;3.72;;;2.45;;
21771;SDS011;11047;47.904;8.110;2022-09-17T07:16:21;4.13;;;2.80;;
21771;SDS011;11047;47.904;8.110;2022-09-17T07:18:48;7.05;;;3.10;;
21771;SDS011;11047;47.904;8.110;2022-09-17T07:21:15;4.32;;;3.00;;
21771;SDS011;11047;47.904;8.110;2022-09-17T07:23:42;5.90;;;2.90;;
21771;SDS011;11047;47.904;8.110;2022-09-17T07:26:12;6.88;;;2.53;;
21771;SDS011;11047;47.904;8.110;2022-09-17T07:28:40;4.40;;;3.00;;
21771;SDS011;11047;47.904;8.110;2022-09-17T07:31:09;4.70;;;2.85;;
21771;SDS011;11047;47.904;8.110;2022-09-17T07:33:36;2.75;;;2.55;;
21771;SDS011;11047;47.904;8.110;2022-09-17T07:36:05;5.00;;;3.08;;
21771;SDS011;11047;47.904;8.110;2022-09-17T07:38:33;5.50;;;2.67;;
21771;SDS011;11047;47.904;8.110;2022-09-17T07:41:01;5.13;;;2.53;;
21771;SDS011;11047;47.904;8.110;2022-09-17T07:43:31;2.88;;;2.28;;
21771;SDS011;11047;47.904;8.110;2022-09-17T07:45:59;6.90;;;2.42;;
21771;SDS011;11047;47.904;8.110;2022-09-17T07:48:28;4.18;;;2.40;;
21771;SDS011;11047;47.904;8.110;2022-09-17T07:50:55;6.68;;;2.78;;
21771;SDS011;11047;47.904;8.110;2022-09-17T07:53:23;2.40;;;1.88;;
21771;SDS011;11047;47.904;8.110;2022-09-17T07:55:51;2.88;;;1.80;;
21771;SDS011;11047;47.904;8.110;2022-09-17T07:58:18;3.28;;;1.90;;
21771;SDS011;11047;47.904;8.110;2022-09-17T08:00:46;2.38;;;1.70;;
21771;SDS011;11047;47.904;8.110;2022-09-17T08:03:14;5.13;;;1.60;;
21771;SDS011;11047;47.904;8.110;2022-09-17T08:05:41;3.65;;;1.65;;
21771;SDS011;11047;47.904;8.110;2022-09-17T08:08:08;3.25;;;1.67;;
21771;SDS011;11047;47.904;8.110;2022-09-17T08:10:34;6.05;;;2.35;;
21771;SDS011;11047;47.904;8.110;2022-09-17T08:13:01;3.50;;;1.50;;
21771;SDS011;11047;47.904;8.110;2022-09-17T08:15:28;3.78;;;1.40;;
21771;SDS011;11047;47.904;8.110;2022-09-17T08:17:56;5.47;;;1.25;;
21771;SDS011;11047;47.904;8.110;2022-09-17T08:20:23;2.03;;;1.15;;
21771;SDS011;11047;47.904;8.110;2022-09-17T08:22:56;2.58;;;0.90;;
21771;SDS011;11047;47.904;8.110;2022-09-17T08:25:24;4.47;;;1.35;;
21771;SDS011;11047;47.904;8.110;2022-09-17T08:27:52;4.00;;;0.90;;
21771;SDS011;11047;47.904;8.110;2022-09-17T08:30:20;5.00;;;1.17;;
21771;SDS011;11047;47.904;8.110;2022-09-17T08:32:47;3.70;;;1.45;;
21771;SDS011;11047;47.904;8.110;2022-09-17T08:35:15;5.18;;;1.20;;
21771;SDS011;11047;47.904;8.110;2022-09-17T08:37:43;3.53;;;1.40;;
21771;SDS011;11047;47.904;8.110;2022-09-17T08:40:12;7.38;;;1.50;;
21771;SDS011;11047;47.904;8.110;2022-09-17T08:42:48;6.00;;;1.42;;
21771;SDS011;11047;47.904;8.110;2022-09-17T08:45:21;4.80;;;1.83;;
21771;SDS011;11047;47.904;8.110;2022-09-17T08:47:50;2.97;;;1.65;;
21771;SDS011;11047;47.904;8.110;2022-09-17T08:50:24;4.93;;;2.00;;
21771;SDS011;11047;47.904;8.110;2022-09-17T08:53:01;5.20;;;1.00;;
21771;SDS011;11047;47.904;8.110;2022-09-17T08:55:49;7.53;;;1.50;;
21771;SDS011;11047;47.904;8.110;2022-09-17T08:58:41;5.82;;;1.20;;
21771;SDS011;11047;47.904;8.110;2022-09-17T09:01:24;7.70;;;1.17;;
21771;SDS011;11047;47.904;8.110;2022-09-17T09:07:09;7.07;;;1.77;;
21771;SDS011;11047;47.904;8.110;2022-09-17T09:09:39;3.20;;;1.00;;
21771;SDS011;11047;47.904;8.110;2022-09-17T09:12:23;5.15;;;1.42;;
21771;SDS011;11047;47.904;8.110;2022-09-17T09:14:55;2.53;;;1.00;;
21771;SDS011;11047;47.904;8.110;2022-09-17T09:17:26;5.22;;;1.17;;
21771;SDS011;11047;47.904;8.110;2022-09-17T09:19:57;2.53;;;0.90;;
21771;SDS011;11047;47.904;8.110;2022-09-17T09:22:28;4.53;;;1.23;;
21771;SDS011;11047;47.904;8.110;2022-09-17T09:27:40;3.85;;;1.38;;
21771;SDS011;11047;47.904;8.110;2022-09-17T09:30:12;2.88;;;1.30;;
21771;SDS011;11047;47.904;8.110;2022-09-17T09:32:46;1.38;;;1.20;;
21771;SDS011;11047;47.904;8.110;2022-09-17T09:35:23;2.10;;;0.93;;
21771;SDS011;11047;47.904;8.110;2022-09-17T09:37:56;3.17;;;1.23;;
21771;SDS011;11047;47.904;8.110;2022-09-17T09:40:35;1.58;;;0.93;;
21771;SDS011;11047;47.904;8.110;2022-09-17T09:43:10;2.55;;;0.98;;
21771;SDS011;11047;47.904;8.110;2022-09-17T09:45:46;3.40;;;1.40;;
21771;SDS011;11047;47.904;8.110;2022-09-17T09:48:26;3.80;;;1.60;;
21771;SDS011;11047;47.904;8.110;2022-09-17T09:51:06;4.38;;;1.77;;
21771;SDS011;11047;47.904;8.110;2022-09-17T09:53:45;7.47;;;2.03;;
21771;SDS011;11047;47.904;8.110;2022-09-17T09:56:36;5.13;;;1.70;;
21771;SDS011;11047;47.904;8.110;2022-09-17T09:59:11;4.30;;;1.48;;
21771;SDS011;11047;47.904;8.110;2022-09-17T10:01:39;3.47;;;1.70;;
21771;SDS011;11047;47.904;8.110;2022-09-17T10:04:14;2.67;;;1.23;;
21771;SDS011;11047;47.904;8.110;2022-09-17T10:06:46;2.35;;;1.35;;
21771;SDS011;11047;47.904;8.110;2022-09-17T10:09:16;5.03;;;2.05;;
21771;SDS011;11047;47.904;8.110;2022-09-17T10:11:57;4.50;;;1.50;;
21771;SDS011;11047;47.904;8.110;2022-09-17T10:14:26;7.00;;;1.60;;
21771;SDS011;11047;47.904;8.110;2022-09-17T10:17:13;3.85;;;1.80;;
21771;SDS011;11047;47.904;8.110;2022-09-17T10:19:42;4.25;;;1.52;;
21771;SDS011;11047;47.904;8.110;2022-09-17T10:22:22;7.70;;;1.40;;
21771;SDS011;11047;47.904;8.110;2022-09-17T10:24:54;5.75;;;1.60;;
21771;SDS011;11047;47.904;8.110;2022-09-17T10:27:22;3.10;;;1.48;;
21771;SDS011;11047;47.904;8.110;2022-09-17T10:29:51;2.42;;;1.30;;
21771;SDS011;11047;47.904;8.110;2022-09-17T10:32:26;3.45;;;1.20;;
21771;SDS011;11047;47.904;8.110;2022-09-17T10:34:56;3.35;;;1.42;;
21771;SDS011;11047;47.904;8.110;2022-09-17T10:37:31;5.22;;;1.40;;
21771;SDS011;11047;47.904;8.110;2022-09-17T10:43:16;6.28;;;1.20;;
21771;SDS011;11047;47.904;8.110;2022-09-17T10:45:53;3.35;;;1.02;;
21771;SDS011;11047;47.904;8.110;2022-09-17T10:48:23;4.03;;;0.80;;
21771;SDS011;11047;47.904;8.110;2022-09-17T10:50:54;2.50;;;1.05;;
21771;SDS011;11047;47.904;8.110;2022-09-17T10:53:21;4.35;;;1.15;;
21771;SDS011;11047;47.904;8.110;2022-09-17T10:55:52;3.70;;;1.48;;
21771;SDS011;11047;47.904;8.110;2022-09-17T10:58:26;7.00;;;2.05;;
21771;SDS011;11047;47.904;8.110;2022-09-17T11:01:07;4.18;;;2.08;;
21771;SDS011;11047;47.904;8.110;2022-09-17T11:06:57;3.45;;;2.00;;
21771;SDS011;11047;47.904;8.110;2022-09-17T11:09:49;3.60;;;2.15;;
21771;SDS011;11047;47.904;8.110;2022-09-17T11:12:38;4.57;;;2.15;;
21771;SDS011;11047;47.904;8.110;2022-09-17T11:15:13;4.97;;;2.03;;
21771;SDS011;11047;47.904;8.110;2022-09-17T11:17:55;5.03;;;2.00;;
21771;SDS011;11047;47.904;8.110;2022-09-17T11:23:28;9.15;;;2.10;;
21771;SDS011;11047;47.904;8.110;2022-09-17T11:26:20;4.70;;;1.92;;
21771;SDS011;11047;47.904;8.110;2022-09-17T11:28:58;4.03;;;1.80;;
21771;SDS011;11047;47.904;8.110;2022-09-17T11:31:36;4.57;;;1.70;;
21771;SDS011;11047;47.904;8.110;2022-09-17T11:34:21;2.63;;;1.70;;
21771;SDS011;11047;47.904;8.110;2022-09-17T11:36:56;8.27;;;1.83;;
21771;SDS011;11047;47.904;8.110;2022-09-17T11:39:30;5.68;;;1.90;;
21771;SDS011;11047;47.904;8.110;2022-09-17T11:42:02;6.68;;;2.47;;
21771;SDS011;11047;47.904;8.110;2022-09-17T11:44:35;2.97;;;1.25;;
21771;SDS011;11047;47.904;8.110;2022-09-17T11:47:08;4.55;;;1.55;;
21771;SDS011;11047;47.904;8.110;2022-09-17T11:49:40;4.25;;;2.17;;
21771;SDS011;11047;47.904;8.110;2022-09-17T11:52:12;2.75;;;1.77;;
21771;SDS011;11047;47.904;8.110;2022-09-17T11:54:58;6.63;;;2.30;;
21771;SDS011;11047;47.904;8.110;2022-09-17T11:57:30;3.63;;;1.77;;
21771;SDS011;11047;47.904;8.110;2022-09-17T12:00:04;3.63;;;1.30;;
21771;SDS011;11047;47.904;8.110;2022-09-17T12:02:41;2.63;;;1.45;;
21771;SDS011;11047;47.904;8.110;2022-09-17T12:05:15;4.10;;;1.33;;
21771;SDS011;11047;47.904;8.110;2022-09-17T12:07:47;6.00;;;1.88;;
21771;SDS011;11047;47.904;8.110;2022-09-17T12:10:24;4.20;;;1.17;;
21771;SDS011;11047;47.904;8.110;2022-09-17T12:13:01;3.38;;;1.50;;
21771;SDS011;11047;47.904;8.110;2022-09-17T12:15:39;5.07;;;1.15;;
21771;SDS011;11047;47.904;8.110;2022-09-17T12:18:15;3.72;;;1.48;;
21771;SDS011;11047;47.904;8.110;2022-09-17T12:20:48;4.50;;;1.35;;
21771;SDS011;11047;47.904;8.110;2022-09-17T12:23:19;1.67;;;1.00;;
21771;SDS011;11047;47.904;8.110;2022-09-17T12:25:54;3.13;;;1.60;;
21771;SDS011;11047;47.904;8.110;2022-09-17T12:28:30;5.75;;;2.42;;
21771;SDS011;11047;47.904;8.110;2022-09-17T12:31:03;5.68;;;2.30;;
21771;SDS011;11047;47.904;8.110;2022-09-17T12:33:36;6.60;;;2.42;;
21771;SDS011;11047;47.904;8.110;2022-09-17T12:36:09;3.53;;;2.30;;
21771;SDS011;11047;47.904;8.110;2022-09-17T12:38:59;2.65;;;1.70;;
21771;SDS011;11047;47.904;8.110;2022-09-17T12:44:15;3.47;;;1.63;;
21771;SDS011;11047;47.904;8.110;2022-09-17T12:46:57;6.03;;;1.70;;
21771;SDS011;11047;47.904;8.110;2022-09-17T12:52:29;4.55;;;1.30;;
21771;SDS011;11047;47.904;8.110;2022-09-17T12:55:17;2.88;;;1.20;;
21771;SDS011;11047;47.904;8.110;2022-09-17T12:57:54;3.08;;;1.38;;
21771;SDS011;11047;47.904;8.110;2022-09-17T13:00:26;4.38;;;1.73;;
21771;SDS011;11047;47.904;8.110;2022-09-17T13:02:57;4.70;;;1.83;;
21771;SDS011;11047;47.904;8.110;2022-09-17T13:05:44;6.00;;;1.90;;
21771;SDS011;11047;47.904;8.110;2022-09-17T13:11:21;5.70;;;2.10;;
21771;SDS011;11047;47.904;8.110;2022-09-17T13:13:59;2.83;;;1.90;;
21771;SDS011;11047;47.904;8.110;2022-09-17T13:16:32;4.13;;;1.80;;
21771;SDS011;11047;47.904;8.110;2022-09-17T13:19:13;3.35;;;1.70;;
21771;SDS011;11047;47.904;8.110;2022-09-17T13:21:50;4.28;;;1.50;;
21771;SDS011;11047;47.904;8.110;2022-09-17T13:24:20;4.32;;;1.40;;
21771;SDS011;11047;47.904;8.110;2022-09-17T13:26:49;5.57;;;1.50;;
21771;SDS011;11047;47.904;8.110;2022-09-17T13:32:40;1.45;;;1.00;;
21771;SDS011;11047;47.904;8.110;2022-09-17T13:38:17;1.92;;;1.05;;
21771;SDS011;11047;47.904;8.110;2022-09-17T13:40:46;4.93;;;1.67;;
21771;SDS011;11047;47.904;8.110;2022-09-17T13:43:14;1.73;;;1.15;;
21771;SDS011;11047;47.904;8.110;2022-09-17T13:48:35;1.85;;;0.98;;
21771;SDS011;11047;47.904;8.110;2022-09-17T13:54:16;1.83;;;0.80;;
21771;SDS011;11047;47.904;8.110;2022-09-17T13:56:45;3.90;;;0.98;;
21771;SDS011;11047;47.904;8.110;2022-09-17T13:59:15;2.53;;;0.80;;
21771;SDS011;11047;47.904;8.110;2022-09-17T14:01:55;1.80;;;0.75;;
21771;SDS011;11047;47.904;8.110;2022-09-17T14:04:47;4.05;;;0.90;;
21771;SDS011;11047;47.904;8.110;2022-09-17T14:07:33;2.40;;;1.10;;
21771;SDS011;11047;47.904;8.110;2022-09-17T14:10:27;2.60;;;1.02;;
21771;SDS011;11047;47.904;8.110;2022-09-17T14:15:56;1.77;;;0.88;;
21771;SDS011;11047;47.904;8.110;2022-09-17T14:18:32;2.33;;;0.75;;
21771;SDS011;11047;47.904;8.110;2022-09-17T14:21:11;3.28;;;0.80;;
21771;SDS011;11047;47.904;8.110;2022-09-17T14:23:51;2.67;;;0.98;;
21771;SDS011;11047;47.904;8.110;2022-09-17T14:26:24;1.50;;;0.57;;
21771;SDS011;11047;47.904;8.110;2022-09-17T14:29:02;2.65;;;1.10;;
21771;SDS011;11047;47.904;8.110;2022-09-17T14:31:35;1.45;;;0.85;;
21771;SDS011;11047;47.904;8.110;2022-09-17T14:34:03;2.60;;;0.98;;
21771;SDS011;11047;47.904;8.110;2022-09-17T14:36:31;1.95;;;0.80;;
21771;SDS011;11047;47.904;8.110;2022-09-17T14:39:03;1.85;;;1.00;;
21771;SDS011;11047;47.904;8.110;2022-09-17T14:41:37;3.77;;;0.77;;
21771;SDS011;11047;47.904;8.110;2022-09-17T14:44:06;2.20;;;1.10;;
21771;SDS011;11047;47.904;8.110;2022-09-17T14:46:39;1.48;;;0.73;;
21771;SDS011;11047;47.904;8.110;2022-09-17T14:49:13;1.77;;;1.08;;
21771;SDS011;11047;47.904;8.110;2022-09-17T14:51:41;4.53;;;1.00;;
21771;SDS011;11047;47.904;8.110;2022-09-17T14:54:13;3.10;;;0.90;;
21771;SDS011;11047;47.904;8.110;2022-09-17T15:02:20;2.15;;;1.02;;
21771;SDS011;11047;47.904;8.110;2022-09-17T15:05:14;1.83;;;1.00;;
21771;SDS011;11047;47.904;8.110;2022-09-17T15:07:43;2.20;;;1.20;;
21771;SDS011;11047;47.904;8.110;2022-09-17T15:10:13;1.20;;;0.90;;
21771;SDS011;11047;47.904;8.110;2022-09-17T15:12:42;3.13;;;1.40;;
21771;SDS011;11047;47.904;8.110;2022-09-17T15:15:15;2.75;;;1.10;;
21771;SDS011;11047;47.904;8.110;2022-09-17T15:17:44;1.23;;;1.02;;
21771;SDS011;11047;47.904;8.110;2022-09-17T15:20:14;3.50;;;1.20;;
21771;SDS011;11047;47.904;8.110;2022-09-17T15:22:44;2.25;;;1.17;;
21771;SDS011;11047;47.904;8.110;2022-09-17T15:25:19;1.48;;;1.20;;
21771;SDS011;11047;47.904;8.110;2022-09-17T15:27:49;1.48;;;0.98;;
21771;SDS011;11047;47.904;8.110;2022-09-17T15:30:19;5.75;;;1.30;;
21771;SDS011;11047;47.904;8.110;2022-09-17T15:32:48;5.20;;;1.27;;
21771;SDS011;11047;47.904;8.110;2022-09-17T15:35:18;3.17;;;1.10;;
21771;SDS011;11047;47.904;8.110;2022-09-17T15:37:48;2.60;;;1.00;;
21771;SDS011;11047;47.904;8.110;2022-09-17T15:40:24;1.38;;;1.00;;
21771;SDS011;11047;47.904;8.110;2022-09-17T15:42:56;1.20;;;0.80;;
21771;SDS011;11047;47.904;8.110;2022-09-17T15:45:39;1.33;;;0.88;;
21771;SDS011;11047;47.904;8.110;2022-09-17T15:48:15;4.65;;;1.10;;
21771;SDS011;11047;47.904;8.110;2022-09-17T15:50:49;2.85;;;1.10;;
21771;SDS011;11047;47.904;8.110;2022-09-17T15:53:20;1.40;;;0.93;;
21771;SDS011;11047;47.904;8.110;2022-09-17T15:56:01;1.40;;;0.88;;
21771;SDS011;11047;47.904;8.110;2022-09-17T15:58:35;2.53;;;0.90;;
21771;SDS011;11047;47.904;8.110;2022-09-17T16:09:54;2.47;;;1.00;;
21771;SDS011;11047;47.904;8.110;2022-09-17T16:12:25;3.97;;;1.10;;
21771;SDS011;11047;47.904;8.110;2022-09-17T16:14:58;2.17;;;1.00;;
21771;SDS011;11047;47.904;8.110;2022-09-17T16:17:27;1.95;;;0.70;;